Chicago Midway International Airport
KMDW : now visible

Airfield :











YOU CAN JOIN US ON...

 
LOGIN :

Register | Disclaimer

   EN    FR    IT 

 









Legend :    VFR   Marginal VFR   IFR   Intensive IFR   Very Intensive IFR
Visi :
Ceiling :
>= 8 km
>= 3000ft
5 to 8 km
1000 to 3000 ft
1500m to 5 km
500 to 1000 ft
800 to 1500m
200 to 500 ft
< 800m
< 200 ft
Symbols :   Thunderstorms  Fog  Heavy snow  Heavy precipitations  Wind > 20 kt







- Airport Elevation : 620 ft
- IATA code : MDW


KMDW - Chicago Midway International

CURRENT METAR :
  • 260653Z 26005KT 10SM FEW060 SCT080 BKN100 23/19 A2995 RMK AO2 RAB34E48 SLP131 FRQ LTGICCC DSNT S-SW CB DSNT S-SW P0000 T02280189

EXPIRED METARs :
  • 260553Z 25005KT 10SM BKN090 BKN250 23/18 A2996 RMK AO2 SLP137 OCNL LTG DSNT W CB DSNT W T02280183 10278 20228 402830222 53008
  • 260453Z 24007KT 10SM BKN250 23/19 A2995 RMK AO2 SLP133 T02330189

TAF KMDW
Valid from the 26 at 06:00 until the 27 at 12:00 UTC


260605Z 2606/2712 25005KT P6SM SCT100 BKN250
TEMPO 2606/2607 6SM -TSRA BKN090CB
FM261000 03007KT P6SM -SHRA SCT020 OVC035
FM261800 08008KT P6SM VCSH SCT025 OVC050
FM262100 05006KT P6SM SCT025 BKN035
FM270600 35005KT P6SM FEW040 SCT250
KZAU FIR / North America



MET'MAP, your aeronautical weather chart ! - Copyright ORBIFLY December 2007 - Disclaimer

ORBIFLY MET'MAP TEAM :

Programming & Development : Alexandra Zaïnal
Concept & Development : Baudouin d'Aumeries
Co-Development & Prog : Marc-Olivier Méhu
Technical & hardware support : Manuel Goepfert

Contact : metmap@orbifly.com




SOURCES & CREDITS :

   NOAA       Earth
Advisory